KB1NHL Weather Reports


Display with metric or nautical units.
time (UTC)temp
F
wind
direction
speed
MPH
gust
MPH
rain 1hr
in
rain 24hr
in
rain mn
in
humidity
%
barometer
mb
20221207171652 55 351 1.0 3.0 0.00 0.72 0.72 99 1021.8
20221207171151 55 352 3.0 5.0 0.00 0.72 0.72 99 1021.8
20221207170651 55 5 4.0 6.0 0.00 0.72 0.72 99 1021.8
20221207170150 55 32 1.0 2.0 0.00 0.72 0.72 99 1021.9
20221207165650 55 22 6.0 8.0 0.00 0.72 0.72 99 1021.9
20221207165148 54 13 4.0 6.0 0.00 0.72 0.72 99 1022.1
20221207164648 54 19 5.0 7.0 0.00 0.72 0.72 99 1022.1
20221207164148 54 20 6.0 8.0 0.00 0.72 0.72 99 1022.0
20221207163646 54 0 4.0 6.0 0.00 0.72 0.72 99 1022.3
20221207163146 54 351 7.0 9.0 0.00 0.72 0.72 99 1022.1
20221207162645 54 5 5.0 7.0 0.00 0.72 0.72 99 1022.4
20221207162144 54 4 6.0 8.0 0.04 0.72 0.72 99 1022.5
20221207161644 54 2 6.0 8.0 0.11 0.72 0.72 99 1022.4
20221207161142 54 13 4.0 5.0 0.07 0.72 0.72 99 1022.5
20221207160641 54 3 5.0 7.0 0.00 0.70 0.70 99 1022.8
20221207160141 54 355 7.0 8.0 0.00 0.70 0.70 99 1023.1
20221207155639 54 341 5.0 7.0 0.00 0.70 0.70 99 1022.9
20221207155138 54 26 6.0 8.0 0.04 0.70 0.70 99 1023.2
20221207154637 54 50 4.0 5.0 0.04 0.70 0.70 99 1023.2
20221207154136 54 1 3.0 5.0 0.00 0.70 0.70 99 1023.3
20221207153633 54 337 7.0 8.0 0.00 0.70 0.70 99 1023.2
20221207153132 54 18 5.0 7.0 0.14 0.70 0.70 99 1023.6
20221207152632 54 19 3.0 6.0 0.14 0.70 0.70 99 1023.6
20221207152132 54 18 5.0 7.0 0.00 0.67 0.67 99 1023.8
20221207151631 53 10 3.0 5.0 0.00 0.67 0.67 99 1023.9
20221207151129 53 15 5.0 7.0 0.04 0.67 0.67 99 1023.6
20221207150627 53 2 3.0 6.0 0.04 0.67 0.67 99 1023.7
20221207150126 53 31 1.0 3.0 0.07 0.66 0.66 99 1024.0
20221207145625 53 329 4.0 6.0 0.07 0.66 0.66 99 1023.9
20221207145124 53 358 1.0 3.0 0.11 0.65 0.65 99 1023.8
20221207144624 53 13 4.0 7.0 0.23 0.65 0.65 99 1023.8
20221207144122 53 31 3.0 5.0 0.16 0.63 0.63 99 1024.1
20221207143621 53 338 6.0 7.0 0.04 0.61 0.61 99 1024.4
20221207143119 53 358 4.0 7.0 0.07 0.61 0.61 99 1024.2
20221207142619 53 343 6.0 8.0 0.11 0.61 0.61 99 1024.4
20221207142116 53 5 3.0 6.0 0.04 0.59 0.59 99 1024.2
20221207141614 53 8 5.0 6.0 0.07 0.59 0.59 99 1024.2
20221207141113 53 14 5.0 8.0 0.07 0.59 0.59 99 1024.3
20221207140612 53 337 3.0 5.0 0.00 0.57 0.57 99 1024.1
20221207140113 53 0 3.0 5.0 0.04 0.57 0.57 99 1024.4
20221207135611 53 347 5.0 7.0 0.04 0.57 0.57 99 1024.2
20221207135111 53 13 3.0 5.0 0.00 0.57 0.57 99 1024.4
20221207134611 53 331 3.0 5.0 0.07 0.57 0.57 99 1024.3
20221207134110 52 347 0.0 2.0 0.14 0.57 0.57 99 1024.4
20221207133609 52 332 3.0 5.0 0.11 0.55 0.55 99 1024.7
20221207133108 52 355 4.0 6.0 0.11 0.54 0.54 99 1024.5
20221207132608 52 357 0.0 1.0 0.11 0.53 0.53 99 1024.5
20221207132107 52 329 0.0 1.0 0.04 0.52 0.52 99 1024.6
20221207131606 52 10 1.0 2.0 0.07 0.52 0.52 99 1024.5
20221207131105 52 338 3.0 5.0 0.07 0.52 0.52 99 1024.6
20221207130603 52 344 2.0 3.0 0.04 0.50 0.50 99 1024.6
20221207130101 52 323 3.0 5.0 0.11 0.50 0.50 99 1024.6
20221207125600 52 341 3.0 6.0 0.07 0.50 0.50 99 1024.6
20221207125059 51 338 3.0 3.0 0.04 0.48 0.48 99 1024.5
20221207124559 51 337 3.0 5.0 0.04 0.48 0.48 99 1024.4
20221207124058 51 352 3.0 5.0 0.07 0.48 0.48 99 1024.3
20221207123558 51 332 4.0 6.0 0.07 0.48 0.48 99 1024.4
20221207123057 51 342 0.0 1.0 0.00 0.46 0.46 99 1024.4
20221207122555 51 297 3.0 5.0 0.00 0.46 0.46 99 1024.5
20221207122055 51 305 4.0 6.0 0.04 0.46 0.46 99 1024.6
20221207121555 51 296 3.0 3.0 0.04 0.46 0.46 99 1024.6
20221207121054 51 316 4.0 5.0 0.00 0.46 0.46 99 1024.7
20221207120553 51 323 4.0 6.0 0.07 0.46 0.46 99 1024.8
20221207120052 51 350 4.0 5.0 0.07 0.46 0.46 99 1024.8
20221207115552 51 323 2.0 5.0 0.00 0.44 0.44 99 1024.8
20221207115050 51 289 2.0 5.0 0.04 0.44 0.44 99 1024.9
20221207114549 51 341 3.0 3.0 0.04 0.44 0.44 99 1025.1
20221207114049 50 331 2.0 3.0 0.00 0.44 0.44 99 1025.3
20221207113545 50 10 1.0 2.0 0.07 0.44 0.44 99 1025.3
20221207113044 50 330 3.0 5.0 0.14 0.44 0.44 99 1025.2
20221207112542 50 330 3.0 3.0 0.07 0.42 0.42 99 1025.3
20221207112041 50 323 1.0 2.0 0.00 0.41 0.41 99 1025.4
20221207111540 50 314 3.0 6.0 0.04 0.41 0.41 99 1025.2
20221207111040 50 337 4.0 5.0 0.04 0.41 0.41 99 1025.5
20221207110539 50 331 4.0 6.0 0.00 0.40 0.40 99 1025.3
20221207110038 50 2 4.0 7.0 0.07 0.40 0.40 99 1025.2
20221207105538 50 305 3.0 5.0 0.07 0.40 0.40 99 1025.4
20221207105037 50 323 4.0 5.0 0.04 0.39 0.39 99 1025.5
20221207104536 50 327 4.0 5.0 0.04 0.39 0.39 99 1025.5
20221207104036 50 343 3.0 3.0 0.07 0.39 0.39 99 1025.4
20221207103536 50 332 3.0 6.0 0.11 0.39 0.39 99 1025.5
20221207103034 50 339 3.0 5.0 0.11 0.37 0.37 99 1025.5
20221207102534 50 314 5.0 6.0 0.11 0.37 0.37 99 1025.4
20221207102033 50 2 5.0 6.0 0.11 0.35 0.35 99 1025.5
20221207101532 50 321 5.0 7.0 0.11 0.35 0.35 99 1025.5
20221207101030 50 325 6.0 7.0 0.11 0.33 0.33 99 1025.4
20221207100530 50 329 3.0 5.0 0.07 0.33 0.33 99 1025.4
20221207100028 50 329 5.0 6.0 0.11 0.31 0.31 99 1025.6
20221207095527 50 330 5.0 6.0 0.11 0.31 0.31 99 1025.5
20221207095026 50 352 5.0 8.0 0.11 0.29 0.29 99 1025.7
20221207094524 50 338 5.0 7.0 0.23 0.29 0.29 99 1025.4
20221207094025 50 297 5.0 6.0 0.18 0.28 0.28 99 1025.4
20221207093524 50 308 4.0 5.0 0.11 0.26 0.26 99 1025.7
20221207093024 50 278 4.0 6.0 0.04 0.24 0.24 99 1025.5
20221207092523 50 286 2.0 3.0 0.07 0.24 0.24 99 1025.9
20221207092021 50 275 4.0 5.0 0.07 0.24 0.24 99 1025.9
20221207091521 49 324 4.0 5.0 0.07 0.24 0.24 99 1026.2
20221207091021 49 292 2.0 5.0 0.04 0.22 0.22 99 1025.9
20221207090519 49 271 5.0 6.0 0.11 0.22 0.22 99 1026.0
20221207090019 49 283 1.0 3.0 0.07 0.22 0.22 99 1025.9
20221207085518 49 304 3.0 5.0 0.04 0.20 0.20 99 1026.1
20221207085018 49 296 4.0 5.0 0.04 0.20 0.20 99 1026.1
20221207084518 49 317 4.0 5.0 0.14 0.20 0.20 99 1025.9
20221207084017 49 286 3.0 6.0 0.26 0.20 0.20 99 1026.0
20221207083515 49 264 2.0 3.0 0.23 0.17 0.17 99 1026.2
20221207083014 49 342 3.0 5.0 0.16 0.15 0.15 99 1026.3
20221207082515 49 311 3.0 3.0 0.04 0.13 0.13 99 1026.3
20221207082015 49 316 3.0 3.0 0.07 0.13 0.13 99 1026.4
20221207081513 48 327 3.0 3.0 0.07 0.13 0.13 99 1026.6
20221207081011 48 315 5.0 7.0 0.04 0.11 0.11 99 1026.3
20221207080511 48 348 2.0 3.0 0.16 0.11 0.11 99 1026.5
20221207080010 48 345 4.0 7.0 0.18 0.11 0.11 99 1026.4
20221207075509 48 306 4.0 6.0 0.07 0.09 0.09 99 1026.3
20221207075007 48 305 3.0 5.0 0.04 0.07 0.07 99 1026.4
20221207074507 48 286 3.0 5.0 0.11 0.07 0.07 99 1026.5
20221207074005 48 284 3.0 3.0 0.07 0.07 0.07 99 1026.6
20221207073503 48 289 4.0 6.0 0.07 0.05 0.05 99 1027.0
20221207073003 48 320 4.0 6.0 0.07 0.05 0.05 99 1026.8
20221207072502 48 317 5.0 7.0 0.04 0.04 0.04 99 1026.9
20221207072002 48 359 3.0 5.0 0.11 0.04 0.04 99 1027.1
20221207071501 48 307 4.0 5.0 0.07 0.03 0.03 99 1027.1
20221207071000 48 318 4.0 7.0 0.00 0.02 0.02 99 1027.2
20221207070459 48 274 4.0 5.0 0.00 0.02 0.02 99 1027.2
20221207065959 48 293 1.0 2.0 0.04 0.02 0.02 99 1027.6
20221207065457 48 313 4.0 5.0 0.04 0.02 0.02 99 1027.3
20221207064955 48 302 2.0 3.0 0.00 0.02 0.02 99 1027.2
20221207064455 48 266 2.0 3.0 0.00 0.02 0.02 99 1027.2
20221207063953 48 307 5.0 8.0 0.00 0.02 0.02 99 1027.3
20221207063453 48 300 3.0 5.0 0.00 0.02 0.02 99 1027.1
20221207062952 48 327 4.0 6.0 0.00 0.02 0.02 99 1027.2
20221207062450 48 291 3.0 5.0 0.00 0.02 0.02 99 1027.2
20221207061948 48 305 4.0 6.0 0.00 0.02 0.02 99 1027.1
20221207061449 48 298 4.0 6.0 0.00 0.02 0.02 99 1027.4
20221207060947 48 322 3.0 3.0 0.00 0.02 0.02 99 1027.3
20221207060447 48 274 3.0 5.0 0.00 0.02 0.02 99 1027.4
20221207055946 48 327 2.0 3.0 0.00 0.02 0.02 99 1027.2
20221207055446 48 298 3.0 5.0 0.00 0.02 0.02 99 1027.4
20221207054945 48 279 3.0 5.0 0.00 0.02 0.02 99 1027.4
20221207054444 48 279 3.0 5.0 0.07 0.02 0.02 99 1027.5
20221207053942 48 310 3.0 5.0 0.07 0.02 0.02 99 1027.7
20221207053442 48 314 4.0 6.0 0.00 0.00 0.00 99 1027.6
20221207052940 48 288 2.0 3.0 0.00 0.00 0.00 99 1027.7
20221207052439 48 325 3.0 3.0 0.00 0.00 0.00 99 1027.7
20221207051938 48 290 3.0 5.0 0.00 0.00 0.00 99 1027.6
20221207051437 48 297 3.0 3.0 0.00 0.00 0.00 99 1027.6
20221207050936 48 311 4.0 6.0 0.04 0.00 0.00 99 1027.7
20221207050435 48 297 5.0 7.0 0.04 0.00 0.00 99 1027.7
20221207045934 48 305 1.0 2.0 0.00 0.05 0.05 99 1027.7
20221207045433 48 272 2.0 2.0 0.00 0.05 0.05 99 1027.8
20221207044932 48 277 4.0 7.0 0.00 0.05 0.05 99 1027.9
20221207044432 48 271 3.0 3.0 0.00 0.05 0.05 99 1028.3
20221207043929 48 296 3.0 5.0 0.00 0.05 0.05 99 1028.0
20221207043428 48 300 3.0 3.0 0.00 0.05 0.05 99 1027.9
20221207042926 48 272 3.0 3.0 0.00 0.05 0.05 99 1028.0
20221207042426 48 299 3.0 3.0 0.00 0.05 0.05 99 1028.2
20221207041925 48 286 2.0 3.0 0.00 0.05 0.05 99 1028.2
20221207041424 48 270 4.0 5.0 0.00 0.05 0.05 99 1028.3
20221207040924 48 299 2.0 5.0 0.00 0.05 0.05 99 1028.2
20221207040424 48 263 3.0 6.0 0.00 0.05 0.05 99 1028.0
20221207035924 48 261 2.0 3.0 0.00 0.05 0.05 99 1028.3
20221207035423 48 259 3.0 3.0 0.00 0.05 0.05 99 1028.3
20221207034923 48 284 3.0 6.0 0.00 0.05 0.05 99 1028.5
20221207034422 48 304 3.0 5.0 0.00 0.05 0.05 99 1028.5
20221207033921 48 261 0.0 0.0 0.00 0.05 0.05 99 1028.5
20221207033421 48 306 1.0 3.0 0.07 0.05 0.05 99 1028.5
20221207032921 48 256 2.0 5.0 0.07 0.05 0.05 99 1028.6
20221207032420 48 280 1.0 2.0 0.00 0.03 0.03 99 1028.6
20221207031920 48 271 3.0 5.0 0.00 0.03 0.03 99 1028.4
20221207031418 48 283 2.0 3.0 0.00 0.03 0.03 99 1028.9
20221207030917 48 279 1.0 2.0 0.00 0.03 0.03 99 1028.7
20221207030417 48 262 3.0 5.0 0.00 0.03 0.03 99 1028.7
20221207025916 48 280 2.0 5.0 0.00 0.03 0.03 99 1028.8
20221207025414 48 247 1.0 3.0 0.00 0.03 0.03 99 1029.0
20221207024913 48 275 4.0 5.0 0.00 0.03 0.03 99 1028.9
20221207024413 48 248 0.0 0.0 0.04 0.03 0.03 99 1028.8
20221207023912 48 248 1.0 2.0 0.04 0.03 0.03 99 1028.7
20221207023412 48 261 0.0 0.0 0.00 0.03 0.03 99 1028.8
20221207022911 48 270 3.0 3.0 0.00 0.03 0.03 99 1028.7
20221207022409 48 262 0.0 0.0 0.00 0.03 0.03 99 1028.8
20221207021909 48 282 2.0 3.0 0.00 0.03 0.03 99 1028.8
20221207021407 48 273 4.0 5.0 0.00 0.03 0.03 99 1028.9
20221207020906 48 278 2.0 3.0 0.00 0.03 0.03 99 1028.7
20221207020405 48 296 3.0 5.0 0.00 0.03 0.03 99 1028.8
20221207015904 48 267 3.0 5.0 0.00 0.03 0.03 99 1029.0
20221207015404 48 260 1.0 2.0 0.00 0.03 0.03 99 1029.1
20221207014903 48 286 5.0 6.0 0.00 0.03 0.03 99 1029.1
20221207014401 48 274 1.0 5.0 0.00 0.03 0.03 99 1028.9
20221207013901 48 264 2.0 3.0 0.00 0.03 0.03 99 1029.1
20221207013400 48 256 0.0 0.0 0.00 0.03 0.03 98 1028.8
20221207012858 48 289 2.0 3.0 0.00 0.03 0.03 98 1029.0
20221207012356 47 291 3.0 3.0 0.00 0.03 0.03 98 1029.0
20221207011856 48 276 4.0 6.0 0.00 0.03 0.03 98 1028.9
20221207011356 48 237 1.0 3.0 0.00 0.03 0.03 98 1028.9
20221207010856 47 300 3.0 5.0 0.00 0.03 0.03 98 1028.8
20221207010354 48 297 3.0 5.0 0.00 0.03 0.03 97 1028.9
20221207005853 47 270 4.0 5.0 0.00 0.03 0.03 97 1029.2
20221207005353 47 266 1.0 3.0 0.00 0.03 0.03 97 1029.1
20221207004852 47 255 1.0 3.0 0.00 0.03 0.03 97 1029.1
20221207004351 47 277 3.0 5.0 0.00 0.03 0.03 97 1029.1
20221207003850 47 298 3.0 6.0 0.00 0.03 0.03 97 1029.1
20221207003349 47 261 3.0 5.0 0.00 0.03 0.03 96 1029.1
20221207002849 47 275 2.0 5.0 0.00 0.03 0.03 96 1029.1
20221207002348 47 259 2.0 3.0 0.00 0.03 0.03 96 1029.1
20221207001847 48 278 4.0 6.0 0.00 0.03 0.03 96 1028.8
20221207001346 48 287 4.0 5.0 0.00 0.03 0.03 96 1029.0
20221207000845 48 286 1.0 3.0 0.00 0.03 0.03 96 1029.2
20221207000345 48 284 4.0 6.0 0.00 0.03 0.03 95 1029.2
20221206235845 48 277 2.0 3.0 0.00 0.03 0.03 95 1029.3
20221206235344 48 301 4.0 6.0 0.00 0.03 0.03 95 1029.0
20221206234843 48 267 0.0 0.0 0.00 0.03 0.03 95 1029.2
20221206234342 48 303 3.0 6.0 0.00 0.03 0.03 94 1029.1
20221206233841 48 301 2.0 3.0 0.07 0.03 0.03 94 1029.1
20221206233340 48 265 0.0 0.0 0.07 0.03 0.03 93 1029.3
20221206232839 48 284 1.0 3.0 0.00 0.02 0.02 92 1029.1
20221206232339 48 303 3.0 5.0 0.00 0.02 0.02 92 1029.0
20221206231839 48 267 0.0 1.0 0.04 0.02 0.02 91 1029.1
20221206231337 49 307 2.0 2.0 0.04 0.02 0.02 91 1029.2
20221206230835 49 261 3.0 5.0 0.00 0.01 0.01 90 1029.1
20221206230335 49 286 0.0 0.0 0.07 0.01 0.01 89 1029.2
20221206225834 50 301 2.0 3.0 0.07 0.01 0.01 87 1029.3
20221206225333 50 301 0.0 1.0 0.00 0.00 0.00 86 1029.2
20221206224833 50 291 3.0 3.0 0.00 0.00 0.00 85 1029.1
20221206224333 50 306 1.0 2.0 0.00 0.00 0.00 84 1029.2
20221206223831 51 299 2.0 3.0 0.00 0.00 0.00 82 1029.1
20221206223330 51 303 3.0 5.0 0.00 0.00 0.00 80 1029.1
20221206222829 51 280 0.0 1.0 0.00 0.00 0.00 80 1029.1
20221206222327 51 306 2.0 3.0 0.00 0.00 0.00 80 1029.3
20221206221826 51 302 2.0 3.0 0.00 0.00 0.00 80 1029.1
20221206221324 51 291 2.0 3.0 0.00 0.00 0.00 80 1029.2
20221206220824 51 325 4.0 5.0 0.00 0.00 0.00 79 1029.1
20221206220324 51 320 3.0 3.0 0.00 0.00 0.00 79 1029.2
20221206215823 51 329 3.0 3.0 0.00 0.00 0.00 79 1029.2
20221206215322 51 312 2.0 3.0 0.00 0.00 0.00 79 1029.1
20221206214820 52 301 3.0 3.0 0.00 0.00 0.00 79 1029.0
20221206214320 52 299 0.0 0.0 0.00 0.00 0.00 79 1029.3
20221206213819 52 323 3.0 5.0 0.00 0.00 0.00 79 1029.2
20221206213317 52 316 2.0 3.0 0.00 0.00 0.00 79 1029.1
20221206212816 52 311 2.0 6.0 0.00 0.00 0.00 79 1029.4
20221206212316 52 290 0.0 0.0 0.00 0.00 0.00 79 1029.3
20221206211815 52 342 2.0 5.0 0.00 0.00 0.00 79 1029.0
20221206211315 52 273 0.0 0.0 0.00 0.00 0.00 79 1029.1
20221206210815 52 322 3.0 5.0 0.00 0.00 0.00 79 1029.1
20221206210313 52 312 1.0 3.0 0.00 0.00 0.00 79 1029.0
20221206205811 52 330 3.0 5.0 0.00 0.00 0.00 79 1029.1
20221206205310 52 303 0.0 0.0 0.00 0.00 0.00 79 1029.1
20221206204810 52 282 3.0 3.0 0.00 0.00 0.00 78 1029.0
20221206204309 53 309 5.0 7.0 0.00 0.00 0.00 78 1029.1
20221206203808 53 307 3.0 5.0 0.00 0.00 0.00 78 1029.0
20221206203308 53 300 0.0 0.0 0.00 0.00 0.00 78 1029.2
20221206202806 53 329 1.0 5.0 0.00 0.00 0.00 78 1029.0
20221206202305 53 303 4.0 5.0 0.00 0.00 0.00 78 1028.7
20221206201804 53 328 5.0 7.0 0.00 0.00 0.00 78 1029.0
20221206201303 53 336 5.0 7.0 0.00 0.00 0.00 78 1029.0
20221206200802 53 310 4.0 5.0 0.00 0.00 0.00 78 1029.1
20221206200301 53 357 5.0 6.0 0.00 0.00 0.00 78 1028.9
20221206195801 53 307 4.0 6.0 0.00 0.00 0.00 78 1028.9
20221206195300 53 272 3.0 6.0 0.00 0.00 0.00 78 1028.9
20221206194759 53 339 5.0 7.0 0.00 0.00 0.00 78 1028.9
20221206194258 53 308 2.0 5.0 0.00 0.00 0.00 78 1028.8
20221206193757 53 316 5.0 6.0 0.00 0.00 0.00 78 1028.8
20221206193256 53 301 3.0 5.0 0.00 0.00 0.00 78 1028.9
20221206192755 53 304 3.0 3.0 0.00 0.00 0.00 77 1029.0
20221206192255 53 312 4.0 7.0 0.00 0.00 0.00 77 1029.0
20221206191754 53 316 3.0 3.0 0.00 0.00 0.00 77 1028.9
20221206191254 54 301 2.0 3.0 0.00 0.00 0.00 77 1028.8
20221206190753 54 318 5.0 6.0 0.00 0.00 0.00 77 1028.9
20221206190253 54 337 3.0 5.0 0.00 0.00 0.00 77 1028.9
20221206185754 54 316 2.0 3.0 0.00 0.00 0.00 77 1029.0
20221206185253 54 305 5.0 6.0 0.00 0.00 0.00 76 1028.9
20221206184753 54 342 3.0 3.0 0.00 0.00 0.00 76 1028.9
20221206184252 54 344 4.0 7.0 0.00 0.00 0.00 76 1029.0
20221206183751 54 348 2.0 3.0 0.00 0.00 0.00 76 1028.9
20221206183249 54 304 2.0 2.0 0.00 0.00 0.00 76 1028.9
20221206182749 54 330 0.0 0.0 0.00 0.00 0.00 76 1029.1
20221206182247 54 342 4.0 6.0 0.00 0.00 0.00 76 1029.2
20221206181746 54 349 4.0 5.0 0.00 0.00 0.00 76 1029.0
20221206181246 54 327 3.0 5.0 0.00 0.00 0.00 76 1029.1
20221206180744 54 330 4.0 6.0 0.00 0.00 0.00 75 1029.0
20221206180243 54 309 4.0 6.0 0.00 0.00 0.00 75 1028.7
20221206175742 54 331 5.0 6.0 0.00 0.00 0.00 75 1028.9
20221206175242 54 333 4.0 5.0 0.00 0.00 0.00 75 1029.1
20221206174740 54 3 0.0 1.0 0.00 0.00 0.00 75 1028.9
20221206174239 53 342 5.0 7.0 0.00 0.00 0.00 75 1029.3
20221206173739 53 340 6.0 7.0 0.00 0.00 0.00 75 1029.1
20221206173237 53 6 5.0 8.0 0.00 0.00 0.00 76 1029.3
20221206172737 53 329 7.0 8.0 0.00 0.00 0.00 76 1029.3
20221206172237 53 327 4.0 6.0 0.00 0.00 0.00 76 1029.3
20221206171736 53 317 7.0 8.0 0.00 0.00 0.00 77 1029.3